Station info - map view · info · telemetry · weather · raw · status · beacons · messages · bulletins · browse · moving · my account
Callsign, ship name or locator: Clear       
It is possible to search using wildcards (*?) after a prefix. Example: OH*
APRS station K9QV - show graphs
Map loading...
Comment: 146.520MHz T103
Mic-E message: En route
Location: 40°11.05' N 86°12.30' W - locator EN60VE54JE - show map - static map
3.5 miles North bearing 14° from Sheridan, Hamilton County, Indiana, United States [?]
11.0 miles Southwest bearing 232° from Tipton, Tipton County, Indiana, United States
28.8 miles North bearing 355° from Indianapolis, Marion County, Indiana, United States
86.3 miles Southwest bearing 221° from Fort Wayne, Allen County, Indiana, United States
Last position: 2018-10-02 15:09:45 EDT (17d 13h36m ago)
2018-10-02 15:09:45 EDT local time at Sheridan, United States [?]
Altitude: 1102 ft
Course: 242°
Speed: 78 MPH
Last telemetry: 2011-03-04 20:42:51 EST (2786d 7h3m ago) – show telemetry
Ch 1: 122, Ch 2: 81, Ch 3: 255, Ch 4: 177, Ch 5: 135
 1     2     3     4     5     6     7     8 
Device: Kenwood: TH-D72 (ht)
Last path: K9QV>TP1Q0U via W9ICE-10,WIDE1*,qAR,WB9TLH-11 (good)
Positions stored: 18366
Other SSIDs: K9QV-1 K9QV-10 K9QV-12
Stations near current position of K9QV - show more
callsign distance last heard - EDT      callsign distance last heard - EDT
W9ROB8-153.1 miles 232°2018-10-01 02:32:46 KB9PFM-103.2 miles 46°2018-10-20 04:33:48
KB9PFM-113.3 miles 47°2018-10-20 04:34:43 KB9PFM-93.3 miles 47°2018-10-18 14:30:07
KB9PFM3.3 miles 47°2018-10-20 04:28:20 KD9AKR-104.5 miles 205°2018-10-06 10:28:44
DW85735.7 miles 62°2018-10-20 04:32:00 DW84288.8 miles 125°2018-10-20 04:31:37
KD9FAY9.4 miles 153°2018-09-26 10:05:22 W9MSK9.9 miles 116°2018-10-13 18:25:05
W9KD-ios10.0 miles 133°2018-10-19 20:57:37 W0ALA10.4 miles 155°2018-10-20 00:58:18
EW458511.0 miles 50°2018-10-20 04:41:55 KD9BIP-911.1 miles 172°2018-09-24 20:13:06
DW386912.3 miles 174°2018-10-20 04:42:03 NF9K-912.9 miles 138°2018-10-18 14:33:51
NF9K B13.0 miles 138°2018-10-20 04:36:04 NF9K-B13.0 miles 138°2018-10-20 04:36:14
NF9K-213.0 miles 138°2018-10-15 18:38:04 NF9K-1313.0 miles 138°2018-10-20 04:30:18
Stations which heard K9QV directly on radio –
callsign pkts first heard - EDT last heard longest (tx => rx) longest at - EDT
KB9PFM-10 1 2018-10-02 15:07:57 2018-10-02 15:07:57 EN60VD > EN60WF 6.7 miles 28° 2018-10-02 15:07:57
K9APR-5 8 2018-10-02 09:05:08 2018-10-02 10:37:46 EN70AI > EM79LV 57.8 miles 125° 2018-10-02 09:05:08
W8BLV 5 2018-10-02 09:23:12 2018-10-02 10:28:26 EM79MV > EM79TM 41.3 miles 129° 2018-10-02 09:23:12
W9GO-3 2 2018-10-02 08:57:54 2018-10-02 15:05:56 EN60VB > EN60WL 30.1 miles 8° 2018-10-02 15:05:56
KI6SZ-2 8 2018-10-02 09:13:10 2018-10-02 10:28:26 EN70FD > EM79WT 78.3 miles 105° 2018-10-02 09:13:10
W9ICE-10 4 2018-10-02 08:29:03 2018-10-02 15:09:45 EN60VE > EM69VV 20.3 miles 180° 2018-10-02 15:09:45
KC9QAK-3 1 2018-10-02 09:01:07 2018-10-02 09:01:07 EN60WL > EN61WG 56.3 miles 0° 2018-10-02 09:01:07
W8VFR-1 7 2018-10-02 09:25:16 2018-10-02 10:28:27 EM79QV > EM79PO 20.0 miles 187° 2018-10-02 09:29:34
W8VFR-2 7 2018-10-02 09:23:11 2018-10-02 10:32:20 EM79MT > EM79OU 10.1 miles 81° 2018-10-02 10:32:20
W8VFR-10 1 2018-10-02 09:36:44 2018-10-02 09:36:44 EM79OS > EM79PS 3.5 miles 88° 2018-10-02 09:36:44
W8VFR-3 2 2018-10-02 09:28:33 2018-10-02 09:29:34 EM79PV > EM79TP 24.9 miles 136° 2018-10-02 09:28:33
W8VFR-4 6 2018-10-02 09:23:11 2018-10-02 09:32:41 EM79MV > EM79TR 31.8 miles 108° 2018-10-02 09:23:11
KC9MWQ-1 4 2018-10-02 08:57:24 2018-10-02 10:57:37 EN70HB > EN70EO 41.5 miles 337° 2018-10-02 10:41:47
KS9N-10 9 2018-10-02 09:19:12 2018-10-02 10:37:47 EM79JX > EM79NT 19.0 miles 120° 2018-10-02 09:19:12
W8VFR-11 18 2018-10-02 09:07:07 2018-10-02 10:43:47 EN70CH > EM79NO 69.2 miles 135° 2018-10-02 09:07:07
KD9AKR-10 1 2018-10-02 15:09:14 2018-10-02 15:09:14 EN60VE > EN60VD 4.2 miles 210° 2018-10-02 15:09:14
W9YB-1 1 2018-10-02 08:55:20 2018-10-02 08:55:20 EN60VM > EN60NK 38.9 miles 262° 2018-10-02 08:55:20
KD8LXB-10 7 2018-10-02 09:25:12 2018-10-02 10:28:25 EM79NU > EM79QR 16.0 miles 119° 2018-10-02 09:25:12
WB9EOC-10 12 2018-10-02 08:31:33 2018-10-02 10:58:38 EM79KX > EM69NP 94.7 miles 255° 2018-10-02 10:37:45
W9SMJ-1 16 2018-10-02 08:33:33 2018-10-02 11:00:38 EN70EC > EN60XJ 30.4 miles 312° 2018-10-02 10:47:48
W8VFR-8 14 2018-10-02 09:05:07 2018-10-02 10:36:21 EN70AI > EM79QW 75.5 miles 114° 2018-10-02 09:05:07
W8VFR-6 2 2018-10-02 09:25:13 2018-10-02 09:29:04 EM79NU > EN70QD 21.5 miles 31° 2018-10-02 09:25:13
N4QAD-1 7 2018-10-02 09:15:10 2018-10-02 10:37:48 EN70HB > EN70TI 57.6 miles 71° 2018-10-02 09:15:10
KC9URP-10 1 2018-10-02 10:41:46 2018-10-02 10:41:46 EN70HB > EM79BT 31.3 miles 238° 2018-10-02 10:41:46

Only position packets which were originated by the station are shown here. The range statistics show some extra long hops, because some digipeaters do not correctly add themselves to the digipeater path. Please check the raw packets.
About this site
This page shows real-time information collected from the Automatic Position Reporting System Internet network (APRS-IS). APRS is used by amateur (ham) radio operators to transmit real-time position information, weather data, telemetry and messages over the radio. A vehicle equipped with a GPS receiver, a VHF transmitter or HF transceiver and a small computer device called a tracker transmits it's location, speed and course in a small data packet, which is then received by a nearby iGate receiving site which forwards the packet on the Internet. Systems connected to the Internet can send information on the APRS-IS without a radio transmitter, or collect and display information transmitted anywhere in the world.
FAQ · Blog · Discussion group · Linking to aprs.fi · AIS sites · Service status · Database statistics · Advertising on aprs.fi · Technical details · API · Change log · Planned changes · Credits and thanks · Terms Of Service · iPhone/iPad APRS